Perkins, Oklahoma
Current Conditions -  °F | °C
As of 1:53 AM on Friday 24 Oct 2014 (Local Time) from KSWO Reporting Station
Clear Clear  
Wind Chill: 59°   Ceiling: Unl
Heat Index: 59°   Visibility: 10mi
Dew Point: 56°   Wind: 5mph
Humidity: 90%   Direction: 140°SE
Pressure: 30.09"   Gusts: NA
Location:  35.97°N, 97.03°W
Report Text: KSWO 240653Z AUTO 14004KT 10SM CLR 15/13 A3009 RMK AO2 SLP181 T01500133
Loading
Personal Weather Stations






























Interactive Weather Map
Tropical Storm Tracking
New forecast layout! Learn more

10-Day Weather Forecast

Advertisements
Track Severe Weather on mobile